Airfield :
LOGIN :

Register | Disclaimer

   EN    FR    IT 

 










Legend :    VFR   Marginal VFR   IFR   Intensive IFR   Very Intensive IFR
Visi :
Ceiling :
>= 8 km
>= 3000ft
5 to 8 km
1000 to 3000 ft
1500m to 5 km
500 to 1000 ft
800 to 1500m
200 to 500 ft
< 800m
< 200 ft
Symbols :   Thunderstorms  Fog  Heavy snow  Heavy precipitations  Wind > 20 kt
SIGMETs :     Misc.  Thunderstorms  Icing  Turbulence  Mountain Waves  Volcanic Ashes






- Airport Elevation : 2661 ft
- IATA code : CBH


DAOR - Béchar Boudghene Ben Ali Lotfi

CURRENT METAR :
  • 140600Z 05001KT CAVOK 09/M03 Q1015

EXPIRED METARs :
  • 140500Z 33002KT CAVOK 08/M04 Q1015
  • 140400Z 24002KT CAVOK 09/M03 Q1016

TAF TAF DAOR
Valid from the 14 at 06:00 until the 14 at 15:00 UTC


140500Z 1406/1415 VRB02KT CAVOK
BECMG 1410/1412 22010KT



MET'MAP, your aeronautical weather chart ! - Copyright ORBIFLY December 2007 - Disclaimer

ORBIFLY MET'MAP TEAM :

Programming & Development : Alexandra Zaïnal
Concept & Development : Baudouin d'Aumeries
Co-Development & Prog : Marc-Olivier Méhu
Technical & hardware support : Manuel Goepfert

Contact : metmap@orbifly.com




SOURCES & CREDITS :

   NOAA